sensor_id;sensor_type;location;lat;lon;timestamp;pressure;altitude;pressure_sealevel;temperature;humidity
7918;BME280;4004;42.624;23.386;2023-04-01T00:01:30;93280.81;;;11.30;64.37
7918;BME280;4004;42.624;23.386;2023-04-01T00:03:57;93289.09;;;10.96;65.62
7918;BME280;4004;42.624;23.386;2023-04-01T00:06:24;93267.47;;;10.67;68.15
7918;BME280;4004;42.624;23.386;2023-04-01T00:08:51;93276.94;;;10.47;69.71
7918;BME280;4004;42.624;23.386;2023-04-01T00:11:19;93279.19;;;10.34;70.98
7918;BME280;4004;42.624;23.386;2023-04-01T00:13:47;93278.31;;;10.26;71.65
7918;BME280;4004;42.624;23.386;2023-04-01T00:16:14;93273.78;;;10.30;71.74
7918;BME280;4004;42.624;23.386;2023-04-01T00:18:41;93282.50;;;10.20;72.18
7918;BME280;4004;42.624;23.386;2023-04-01T00:21:08;93278.63;;;10.17;72.53
7918;BME280;4004;42.624;23.386;2023-04-01T00:23:35;93271.75;;;10.16;73.28
7918;BME280;4004;42.624;23.386;2023-04-01T00:26:02;93279.47;;;10.25;73.17
7918;BME280;4004;42.624;23.386;2023-04-01T00:28:31;93276.81;;;10.29;74.03
7918;BME280;4004;42.624;23.386;2023-04-01T00:30:57;93281.50;;;10.39;73.06
7918;BME280;4004;42.624;23.386;2023-04-01T00:33:24;93283.44;;;10.42;72.45
7918;BME280;4004;42.624;23.386;2023-04-01T00:35:52;93282.69;;;10.42;73.16
7918;BME280;4004;42.624;23.386;2023-04-01T00:38:19;93273.16;;;10.55;74.42
7918;BME280;4004;42.624;23.386;2023-04-01T00:40:46;93277.38;;;10.52;72.86
7918;BME280;4004;42.624;23.386;2023-04-01T00:43:15;93266.22;;;10.50;72.75
7918;BME280;4004;42.624;23.386;2023-04-01T00:45:46;93250.53;;;10.60;72.09
7918;BME280;4004;42.624;23.386;2023-04-01T00:48:16;93248.94;;;10.48;70.93
7918;BME280;4004;42.624;23.386;2023-04-01T00:50:48;93246.22;;;10.44;70.90
7918;BME280;4004;42.624;23.386;2023-04-01T00:53:17;93235.50;;;10.48;71.05
7918;BME280;4004;42.624;23.386;2023-04-01T00:55:49;93236.28;;;10.48;70.49
7918;BME280;4004;42.624;23.386;2023-04-01T00:58:20;93241.72;;;10.63;70.87
7918;BME280;4004;42.624;23.386;2023-04-01T01:00:50;93240.22;;;10.65;71.66
7918;BME280;4004;42.624;23.386;2023-04-01T01:03:17;93242.16;;;10.72;69.35
7918;BME280;4004;42.624;23.386;2023-04-01T01:05:57;93233.69;;;10.73;72.02
7918;BME280;4004;42.624;23.386;2023-04-01T01:08:37;93231.38;;;10.68;69.57
7918;BME280;4004;42.624;23.386;2023-04-01T01:11:08;93230.63;;;10.71;69.84
7918;BME280;4004;42.624;23.386;2023-04-01T01:13:44;93223.34;;;10.75;70.01
7918;BME280;4004;42.624;23.386;2023-04-01T01:16:22;93211.84;;;10.78;69.71
7918;BME280;4004;42.624;23.386;2023-04-01T01:18:53;93207.22;;;10.79;67.19
7918;BME280;4004;42.624;23.386;2023-04-01T01:21:40;93201.84;;;10.83;64.96
7918;BME280;4004;42.624;23.386;2023-04-01T01:24:26;93211.50;;;10.91;63.44
7918;BME280;4004;42.624;23.386;2023-04-01T01:27:02;93197.72;;;11.03;64.74
7918;BME280;4004;42.624;23.386;2023-04-01T01:32:54;93209.66;;;11.20;61.08
7918;BME280;4004;42.624;23.386;2023-04-01T01:35:30;93187.00;;;11.25;62.10
7918;BME280;4004;42.624;23.386;2023-04-01T01:38:00;93180.47;;;11.18;64.47
7918;BME280;4004;42.624;23.386;2023-04-01T01:40:29;93186.59;;;11.23;62.51
7918;BME280;4004;42.624;23.386;2023-04-01T01:43:01;93172.38;;;11.22;59.75
7918;BME280;4004;42.624;23.386;2023-04-01T01:45:30;93167.03;;;11.33;59.13
7918;BME280;4004;42.624;23.386;2023-04-01T01:48:00;93187.78;;;11.32;59.39
7918;BME280;4004;42.624;23.386;2023-04-01T01:50:30;93178.94;;;11.35;62.85
7918;BME280;4004;42.624;23.386;2023-04-01T01:53:02;93168.19;;;11.39;60.87
7918;BME280;4004;42.624;23.386;2023-04-01T01:55:30;93173.19;;;11.37;60.61
7918;BME280;4004;42.624;23.386;2023-04-01T01:57:59;93174.34;;;11.43;61.96
7918;BME280;4004;42.624;23.386;2023-04-01T02:00:27;93163.19;;;11.45;59.35
7918;BME280;4004;42.624;23.386;2023-04-01T02:02:56;93153.19;;;11.56;57.10
7918;BME280;4004;42.624;23.386;2023-04-01T02:05:26;93161.66;;;11.65;56.55
7918;BME280;4004;42.624;23.386;2023-04-01T02:08:01;93165.13;;;11.66;56.86
7918;BME280;4004;42.624;23.386;2023-04-01T02:10:31;93144.34;;;11.66;56.53
7918;BME280;4004;42.624;23.386;2023-04-01T02:13:05;93142.78;;;11.76;56.03
7918;BME280;4004;42.624;23.386;2023-04-01T02:15:40;93145.50;;;11.76;57.56
7918;BME280;4004;42.624;23.386;2023-04-01T02:18:09;93149.34;;;11.64;58.05
7918;BME280;4004;42.624;23.386;2023-04-01T02:20:38;93158.19;;;11.57;58.68
7918;BME280;4004;42.624;23.386;2023-04-01T02:23:07;93133.97;;;11.43;59.41
7918;BME280;4004;42.624;23.386;2023-04-01T02:25:37;93144.34;;;11.34;59.93
7918;BME280;4004;42.624;23.386;2023-04-01T02:28:05;93133.56;;;11.45;60.37
7918;BME280;4004;42.624;23.386;2023-04-01T02:30:35;93139.38;;;11.43;59.97
7918;BME280;4004;42.624;23.386;2023-04-01T02:33:03;93142.44;;;11.45;60.44
7918;BME280;4004;42.624;23.386;2023-04-01T02:35:33;93132.44;;;11.60;56.07
7918;BME280;4004;42.624;23.386;2023-04-01T02:38:01;93135.88;;;11.75;55.42
7918;BME280;4004;42.624;23.386;2023-04-01T02:40:29;93128.56;;;11.82;56.65
7918;BME280;4004;42.624;23.386;2023-04-01T02:42:56;93134.72;;;11.76;58.01
7918;BME280;4004;42.624;23.386;2023-04-01T02:45:23;93138.19;;;11.73;58.31
7918;BME280;4004;42.624;23.386;2023-04-01T02:47:49;93132.03;;;11.76;57.61
7918;BME280;4004;42.624;23.386;2023-04-01T02:50:16;93144.72;;;11.82;55.23
7918;BME280;4004;42.624;23.386;2023-04-01T02:52:43;93137.81;;;11.81;55.52
7918;BME280;4004;42.624;23.386;2023-04-01T02:55:10;93157.06;;;11.94;55.61
7918;BME280;4004;42.624;23.386;2023-04-01T02:57:38;93157.84;;;11.98;57.22
7918;BME280;4004;42.624;23.386;2023-04-01T03:00:06;93164.34;;;11.97;57.37
7918;BME280;4004;42.624;23.386;2023-04-01T03:02:37;93156.28;;;11.97;55.15
7918;BME280;4004;42.624;23.386;2023-04-01T03:05:04;93162.41;;;12.09;54.88
7918;BME280;4004;42.624;23.386;2023-04-01T03:07:32;93177.81;;;12.19;55.15
7918;BME280;4004;42.624;23.386;2023-04-01T03:09:59;93173.97;;;12.13;55.67
7918;BME280;4004;42.624;23.386;2023-04-01T03:12:25;93164.34;;;12.12;55.84
7918;BME280;4004;42.624;23.386;2023-04-01T03:14:53;93174.75;;;12.06;55.61
7918;BME280;4004;42.624;23.386;2023-04-01T03:17:20;93173.97;;;12.13;57.08
7918;BME280;4004;42.624;23.386;2023-04-01T03:19:47;93170.91;;;11.96;58.64
7918;BME280;4004;42.624;23.386;2023-04-01T03:22:14;93173.22;;;11.91;59.44
7918;BME280;4004;42.624;23.386;2023-04-01T03:24:40;93164.34;;;11.83;59.80
7918;BME280;4004;42.624;23.386;2023-04-01T03:27:07;93165.50;;;11.75;58.96
7918;BME280;4004;42.624;23.386;2023-04-01T03:29:34;93169.75;;;11.72;59.95
7918;BME280;4004;42.624;23.386;2023-04-01T03:32:02;93167.81;;;11.58;60.60
7918;BME280;4004;42.624;23.386;2023-04-01T03:34:29;93152.03;;;11.64;60.54
7918;BME280;4004;42.624;23.386;2023-04-01T03:36:55;93161.66;;;11.69;57.88
7918;BME280;4004;42.624;23.386;2023-04-01T03:39:22;93166.28;;;11.75;58.34
7918;BME280;4004;42.624;23.386;2023-04-01T03:41:49;93160.88;;;11.65;61.14
7918;BME280;4004;42.624;23.386;2023-04-01T03:44:16;93165.50;;;11.39;63.54
7918;BME280;4004;42.624;23.386;2023-04-01T03:46:42;93158.13;;;10.96;66.58
7918;BME280;4004;42.624;23.386;2023-04-01T03:49:11;93167.53;;;10.44;69.01
7918;BME280;4004;42.624;23.386;2023-04-01T03:51:38;93165.94;;;10.32;69.78
7918;BME280;4004;42.624;23.386;2023-04-01T03:54:05;93144.06;;;10.33;70.12
7918;BME280;4004;42.624;23.386;2023-04-01T03:56:32;93126.13;;;10.52;67.00
7918;BME280;4004;42.624;23.386;2023-04-01T03:59:02;93138.44;;;10.64;67.25
7918;BME280;4004;42.624;23.386;2023-04-01T04:01:29;93131.56;;;10.70;66.48
7918;BME280;4004;42.624;23.386;2023-04-01T04:03:56;93103.88;;;10.62;66.83
7918;BME280;4004;42.624;23.386;2023-04-01T04:06:25;93096.50;;;10.34;68.12
7918;BME280;4004;42.624;23.386;2023-04-01T04:08:52;93084.63;;;10.39;67.55
7918;BME280;4004;42.624;23.386;2023-04-01T04:11:20;93074.63;;;10.39;67.26
7918;BME280;4004;42.624;23.386;2023-04-01T04:13:47;93080.03;;;10.43;68.03
7918;BME280;4004;42.624;23.386;2023-04-01T04:16:14;93075.41;;;10.47;67.98
7918;BME280;4004;42.624;23.386;2023-04-01T04:18:41;93072.38;;;10.52;68.18
7918;BME280;4004;42.624;23.386;2023-04-01T04:21:11;93068.50;;;10.46;68.37
7918;BME280;4004;42.624;23.386;2023-04-01T04:23:40;93055.88;;;10.50;67.11
7918;BME280;4004;42.624;23.386;2023-04-01T04:26:09;93063.94;;;10.57;68.15
7918;BME280;4004;42.624;23.386;2023-04-01T04:28:36;93053.59;;;10.73;63.83
7918;BME280;4004;42.624;23.386;2023-04-01T04:31:03;93052.06;;;10.79;63.38
7918;BME280;4004;42.624;23.386;2023-04-01T04:33:30;93044.00;;;10.87;62.07
7918;BME280;4004;42.624;23.386;2023-04-01T04:35:58;93032.50;;;10.86;61.83
7918;BME280;4004;42.624;23.386;2023-04-01T04:38:26;93044.81;;;10.87;62.21
7918;BME280;4004;42.624;23.386;2023-04-01T04:40:54;93022.13;;;10.88;62.93
7918;BME280;4004;42.624;23.386;2023-04-01T04:43:21;93021.72;;;10.93;62.23
7918;BME280;4004;42.624;23.386;2023-04-01T04:45:48;93012.91;;;10.96;60.92
7918;BME280;4004;42.624;23.386;2023-04-01T04:48:16;93010.59;;;11.06;60.71
7918;BME280;4004;42.624;23.386;2023-04-01T04:50:44;93006.75;;;11.10;59.83
7918;BME280;4004;42.624;23.386;2023-04-01T04:53:11;93000.22;;;11.08;58.76
7918;BME280;4004;42.624;23.386;2023-04-01T04:55:42;93000.97;;;11.15;58.25
7918;BME280;4004;42.624;23.386;2023-04-01T04:58:11;92982.53;;;11.28;55.91
7918;BME280;4004;42.624;23.386;2023-04-01T05:00:38;92993.63;;;11.59;53.86
7918;BME280;4004;42.624;23.386;2023-04-01T05:03:04;92986.28;;;11.67;54.19
7918;BME280;4004;42.624;23.386;2023-04-01T05:05:31;92989.00;;;11.59;55.99
7918;BME280;4004;42.624;23.386;2023-04-01T05:07:58;92985.94;;;11.50;56.27
7918;BME280;4004;42.624;23.386;2023-04-01T05:10:25;92976.69;;;11.66;55.07
7918;BME280;4004;42.624;23.386;2023-04-01T05:12:52;92995.16;;;11.67;55.53
7918;BME280;4004;42.624;23.386;2023-04-01T05:15:20;92987.06;;;11.67;55.80
7918;BME280;4004;42.624;23.386;2023-04-01T05:17:47;92985.53;;;11.66;56.64
7918;BME280;4004;42.624;23.386;2023-04-01T05:20:14;92986.28;;;11.74;57.30
7918;BME280;4004;42.624;23.386;2023-04-01T05:22:41;92977.00;;;11.86;57.30
7918;BME280;4004;42.624;23.386;2023-04-01T05:25:08;92972.78;;;11.77;57.83
7918;BME280;4004;42.624;23.386;2023-04-01T05:27:35;92964.34;;;11.75;57.81
7918;BME280;4004;42.624;23.386;2023-04-01T05:30:02;92962.03;;;11.81;58.20
7918;BME280;4004;42.624;23.386;2023-04-01T05:32:32;92963.16;;;11.91;57.81
7918;BME280;4004;42.624;23.386;2023-04-01T05:34:58;92951.53;;;12.08;57.73
7918;BME280;4004;42.624;23.386;2023-04-01T05:37:25;92949.00;;;12.46;57.53
7918;BME280;4004;42.624;23.386;2023-04-01T05:39:52;92950.81;;;13.12;56.88
7918;BME280;4004;42.624;23.386;2023-04-01T05:42:18;92949.34;;;13.83;54.41
7918;BME280;4004;42.624;23.386;2023-04-01T05:44:45;92952.25;;;14.58;52.52
7918;BME280;4004;42.624;23.386;2023-04-01T05:47:12;92965.28;;;15.13;51.12
7918;BME280;4004;42.624;23.386;2023-04-01T05:49:40;92971.16;;;15.79;49.69
7918;BME280;4004;42.624;23.386;2023-04-01T05:52:07;92967.09;;;16.07;47.83
7918;BME280;4004;42.624;23.386;2023-04-01T05:54:34;92961.84;;;16.56;46.09
7918;BME280;4004;42.624;23.386;2023-04-01T05:57:01;92944.34;;;17.10;45.92
7918;BME280;4004;42.624;23.386;2023-04-01T05:59:27;92940.13;;;17.38;44.32
7918;BME280;4004;42.624;23.386;2023-04-01T06:01:56;92939.84;;;17.36;45.01
7918;BME280;4004;42.624;23.386;2023-04-01T06:04:23;92930.47;;;17.37;43.56
7918;BME280;4004;42.624;23.386;2023-04-01T06:06:51;92936.69;;;17.84;43.49
7918;BME280;4004;42.624;23.386;2023-04-01T06:09:19;92943.31;;;18.25;43.09
7918;BME280;4004;42.624;23.386;2023-04-01T06:12:07;92931.16;;;18.68;42.30
7918;BME280;4004;42.624;23.386;2023-04-01T06:14:47;92947.59;;;18.77;41.23
7918;BME280;4004;42.624;23.386;2023-04-01T06:17:28;92947.00;;;18.18;41.21
7918;BME280;4004;42.624;23.386;2023-04-01T06:20:02;92938.31;;;17.94;41.77
7918;BME280;4004;42.624;23.386;2023-04-01T06:22:45;92940.34;;;18.06;41.83
7918;BME280;4004;42.624;23.386;2023-04-01T06:25:40;92938.78;;;18.05;41.37
7918;BME280;4004;42.624;23.386;2023-04-01T06:31:33;92941.81;;;16.50;44.20
7918;BME280;4004;42.624;23.386;2023-04-01T06:34:30;92949.78;;;16.41;44.82
7918;BME280;4004;42.624;23.386;2023-04-01T06:37:10;92931.66;;;16.54;44.68
7918;BME280;4004;42.624;23.386;2023-04-01T06:39:58;92934.44;;;16.67;44.38
7918;BME280;4004;42.624;23.386;2023-04-01T06:42:53;92934.91;;;16.66;43.99
7918;BME280;4004;42.624;23.386;2023-04-01T06:45:30;92920.81;;;15.98;44.74
7918;BME280;4004;42.624;23.386;2023-04-01T06:48:11;92905.88;;;15.06;47.43
7918;BME280;4004;42.624;23.386;2023-04-01T06:50:47;92904.56;;;14.40;48.72
7918;BME280;4004;42.624;23.386;2023-04-01T06:53:19;92897.13;;;14.21;49.97
7918;BME280;4004;42.624;23.386;2023-04-01T06:55:51;92904.88;;;14.19;51.21
7918;BME280;4004;42.624;23.386;2023-04-01T06:58:21;92904.97;;;14.12;51.40
7918;BME280;4004;42.624;23.386;2023-04-01T07:00:50;92889.94;;;13.80;52.50
7918;BME280;4004;42.624;23.386;2023-04-01T07:03:23;92905.69;;;13.85;52.85
7918;BME280;4004;42.624;23.386;2023-04-01T07:05:57;92893.72;;;13.86;53.11
7918;BME280;4004;42.624;23.386;2023-04-01T07:08:27;92881.25;;;13.96;53.12
7918;BME280;4004;42.624;23.386;2023-04-01T07:10:59;92880.50;;;13.92;52.92
7918;BME280;4004;42.624;23.386;2023-04-01T07:13:32;92888.28;;;13.89;52.75
7918;BME280;4004;42.624;23.386;2023-04-01T07:16:13;92893.16;;;13.98;52.69
7918;BME280;4004;42.624;23.386;2023-04-01T07:18:45;92874.56;;;14.04;52.35
7918;BME280;4004;42.624;23.386;2023-04-01T07:21:22;92867.91;;;14.12;52.17
7918;BME280;4004;42.624;23.386;2023-04-01T07:23:50;92852.41;;;14.16;52.43
7918;BME280;4004;42.624;23.386;2023-04-01T07:26:22;92870.09;;;14.21;52.79
7918;BME280;4004;42.624;23.386;2023-04-01T07:28:51;92883.16;;;14.26;52.97
7918;BME280;4004;42.624;23.386;2023-04-01T07:31:32;92882.69;;;14.31;53.72
7918;BME280;4004;42.624;23.386;2023-04-01T07:34:10;92882.16;;;14.40;53.94
7918;BME280;4004;42.624;23.386;2023-04-01T07:36:45;92868.19;;;14.45;53.94
7918;BME280;4004;42.624;23.386;2023-04-01T07:39:26;92871.16;;;14.54;54.34
7918;BME280;4004;42.624;23.386;2023-04-01T07:42:02;92889.28;;;14.30;55.40
7918;BME280;4004;42.624;23.386;2023-04-01T07:44:36;92855.34;;;13.98;56.34
7918;BME280;4004;42.624;23.386;2023-04-01T07:47:25;92862.41;;;14.19;56.41
7918;BME280;4004;42.624;23.386;2023-04-01T07:50:05;92874.78;;;14.17;56.41
7918;BME280;4004;42.624;23.386;2023-04-01T07:52:36;92878.66;;;14.16;56.63
7918;BME280;4004;42.624;23.386;2023-04-01T07:55:09;92871.63;;;14.22;56.70
7918;BME280;4004;42.624;23.386;2023-04-01T07:57:48;92867.75;;;14.23;56.26
7918;BME280;4004;42.624;23.386;2023-04-01T08:00:19;92877.00;;;14.25;56.45
7918;BME280;4004;42.624;23.386;2023-04-01T08:03:07;92867.41;;;14.21;56.52
7918;BME280;4004;42.624;23.386;2023-04-01T08:05:44;92852.91;;;14.07;57.13
7918;BME280;4004;42.624;23.386;2023-04-01T08:08:18;92866.38;;;14.11;57.10
7918;BME280;4004;42.624;23.386;2023-04-01T08:10:49;92869.63;;;13.99;57.71
7918;BME280;4004;42.624;23.386;2023-04-01T08:13:26;92862.59;;;14.05;58.12
7918;BME280;4004;42.624;23.386;2023-04-01T08:16:06;92852.91;;;14.07;58.06
7918;BME280;4004;42.624;23.386;2023-04-01T08:18:40;92851.19;;;14.21;57.49
7918;BME280;4004;42.624;23.386;2023-04-01T08:21:12;92856.84;;;14.30;57.49
7918;BME280;4004;42.624;23.386;2023-04-01T08:23:44;92848.72;;;14.30;57.70
7918;BME280;4004;42.624;23.386;2023-04-01T08:26:15;92838.50;;;14.41;57.45
7918;BME280;4004;42.624;23.386;2023-04-01T08:28:51;92833.03;;;14.45;57.39
7918;BME280;4004;42.624;23.386;2023-04-01T08:31:26;92811.34;;;14.48;57.29
7918;BME280;4004;42.624;23.386;2023-04-01T08:33:57;92822.47;;;14.54;56.18
7918;BME280;4004;42.624;23.386;2023-04-01T08:36:28;92825.84;;;14.62;56.11
7918;BME280;4004;42.624;23.386;2023-04-01T08:39:02;92809.50;;;14.69;55.93
7918;BME280;4004;42.624;23.386;2023-04-01T08:41:41;92788.63;;;14.89;55.39
7918;BME280;4004;42.624;23.386;2023-04-01T08:44:34;92770.53;;;14.86;55.14
7918;BME280;4004;42.624;23.386;2023-04-01T08:47:23;92780.31;;;14.80;55.46
7918;BME280;4004;42.624;23.386;2023-04-01T08:50:23;92774.16;;;15.00;54.45
7918;BME280;4004;42.624;23.386;2023-04-01T08:53:00;92772.63;;;15.39;54.07
7918;BME280;4004;42.624;23.386;2023-04-01T08:55:38;92782.03;;;15.70;53.31
7918;BME280;4004;42.624;23.386;2023-04-01T09:01:26;92759.50;;;16.26;51.30
7918;BME280;4004;42.624;23.386;2023-04-01T09:04:14;92761.34;;;16.46;49.68
7918;BME280;4004;42.624;23.386;2023-04-01T09:06:55;92764.97;;;16.55;47.86
7918;BME280;4004;42.624;23.386;2023-04-01T09:09:58;92775.16;;;16.51;48.59
7918;BME280;4004;42.624;23.386;2023-04-01T09:12:45;92771.25;;;16.52;49.12
7918;BME280;4004;42.624;23.386;2023-04-01T09:15:25;92764.56;;;16.41;47.47
7918;BME280;4004;42.624;23.386;2023-04-01T09:21:03;92761.50;;;16.22;46.97
7918;BME280;4004;42.624;23.386;2023-04-01T09:23:45;92766.50;;;16.07;47.61
7918;BME280;4004;42.624;23.386;2023-04-01T09:26:26;92762.88;;;15.98;48.09
7918;BME280;4004;42.624;23.386;2023-04-01T09:29:05;92752.78;;;15.82;47.98
7918;BME280;4004;42.624;23.386;2023-04-01T09:34:51;92749.47;;;15.74;47.62
7918;BME280;4004;42.624;23.386;2023-04-01T09:37:20;92736.47;;;15.65;48.19
7918;BME280;4004;42.624;23.386;2023-04-01T09:40:02;92747.94;;;15.53;48.66
7918;BME280;4004;42.624;23.386;2023-04-01T09:42:43;92737.13;;;15.53;49.58
7918;BME280;4004;42.624;23.386;2023-04-01T09:45:24;92745.06;;;15.60;49.12
7918;BME280;4004;42.624;23.386;2023-04-01T09:48:05;92736.81;;;15.67;48.93
7918;BME280;4004;42.624;23.386;2023-04-01T09:50:44;92738.41;;;15.65;47.95
7918;BME280;4004;42.624;23.386;2023-04-01T09:53:28;92734.69;;;15.59;48.30
7918;BME280;4004;42.624;23.386;2023-04-01T09:56:46;92732.38;;;15.57;48.97
7918;BME280;4004;42.624;23.386;2023-04-01T09:59:49;92704.63;;;15.53;48.41
7918;BME280;4004;42.624;23.386;2023-04-01T10:06:00;92724.56;;;15.43;49.10
7918;BME280;4004;42.624;23.386;2023-04-01T10:09:06;92714.16;;;15.41;49.70
7918;BME280;4004;42.624;23.386;2023-04-01T10:11:58;92709.22;;;15.36;50.19
7918;BME280;4004;42.624;23.386;2023-04-01T10:14:52;92697.78;;;15.28;51.10
7918;BME280;4004;42.624;23.386;2023-04-01T10:20:47;92694.53;;;15.37;50.95
7918;BME280;4004;42.624;23.386;2023-04-01T10:23:41;92689.31;;;15.26;50.98
7918;BME280;4004;42.624;23.386;2023-04-01T10:26:25;92694.91;;;15.19;51.17
7918;BME280;4004;42.624;23.386;2023-04-01T10:41:28;92664.38;;;15.19;52.03
7918;BME280;4004;42.624;23.386;2023-04-01T10:44:39;92666.22;;;15.22;51.86
7918;BME280;4004;42.624;23.386;2023-04-01T10:47:51;92662.31;;;15.23;51.68
7918;BME280;4004;42.624;23.386;2023-04-01T10:53:37;92653.06;;;15.04;50.83
7918;BME280;4004;42.624;23.386;2023-04-01T10:56:38;92638.22;;;15.12;51.07
7918;BME280;4004;42.624;23.386;2023-04-01T11:12:02;92627.06;;;15.26;50.87
7918;BME280;4004;42.624;23.386;2023-04-01T11:24:16;92599.56;;;15.44;50.92
7918;BME280;4004;42.624;23.386;2023-04-01T11:26:55;92618.63;;;15.41;48.59
7918;BME280;4004;42.624;23.386;2023-04-01T11:29:44;92618.88;;;15.63;44.27
7918;BME280;4004;42.624;23.386;2023-04-01T11:32:27;92626.19;;;15.82;43.58
7918;BME280;4004;42.624;23.386;2023-04-01T11:35:15;92645.97;;;15.95;43.41
7918;BME280;4004;42.624;23.386;2023-04-01T11:37:51;92651.66;;;16.01;43.40
7918;BME280;4004;42.624;23.386;2023-04-01T11:40:29;92668.59;;;16.05;42.98
7918;BME280;4004;42.624;23.386;2023-04-01T11:43:06;92707.72;;;16.04;43.59
7918;BME280;4004;42.624;23.386;2023-04-01T11:45:37;92735.84;;;15.94;49.34
7918;BME280;4004;42.624;23.386;2023-04-01T11:48:45;92776.34;;;15.45;54.04
7918;BME280;4004;42.624;23.386;2023-04-01T11:51:51;92793.28;;;14.89;58.96
7918;BME280;4004;42.624;23.386;2023-04-01T11:54:32;92809.00;;;14.50;63.97
7918;BME280;4004;42.624;23.386;2023-04-01T11:57:12;92827.91;;;14.27;69.51
7918;BME280;4004;42.624;23.386;2023-04-01T11:59:54;92848.38;;;14.01;73.63
7918;BME280;4004;42.624;23.386;2023-04-01T12:02:29;92856.06;;;13.72;77.68
7918;BME280;4004;42.624;23.386;2023-04-01T12:05:21;92870.06;;;13.32;84.11
7918;BME280;4004;42.624;23.386;2023-04-01T12:08:14;92863.00;;;13.04;88.63
7918;BME280;4004;42.624;23.386;2023-04-01T12:10:50;92817.72;;;12.84;91.22
7918;BME280;4004;42.624;23.386;2023-04-01T12:13:27;92859.34;;;12.83;93.84
7918;BME280;4004;42.624;23.386;2023-04-01T12:16:08;92858.38;;;12.63;99.63
7918;BME280;4004;42.624;23.386;2023-04-01T12:18:42;92857.13;;;12.75;100.00
7918;BME280;4004;42.624;23.386;2023-04-01T12:21:21;92857.09;;;12.78;100.00
7918;BME280;4004;42.624;23.386;2023-04-01T12:24:12;92856.34;;;12.74;100.00
7918;BME280;4004;42.624;23.386;2023-04-01T12:26:52;92846.88;;;12.55;100.00
7918;BME280;4004;42.624;23.386;2023-04-01T12:29:42;92847.34;;;12.47;100.00
7918;BME280;4004;42.624;23.386;2023-04-01T12:32:23;92835.81;;;12.42;100.00
7918;BME280;4004;42.624;23.386;2023-04-01T12:35:05;92834.38;;;12.34;100.00
7918;BME280;4004;42.624;23.386;2023-04-01T12:37:46;92838.56;;;12.35;100.00
7918;BME280;4004;42.624;23.386;2023-04-01T12:40:48;92854.66;;;12.46;100.00
7918;BME280;4004;42.624;23.386;2023-04-01T12:43:41;92860.44;;;12.44;100.00
7918;BME280;4004;42.624;23.386;2023-04-01T12:46:16;92865.06;;;12.48;100.00
7918;BME280;4004;42.624;23.386;2023-04-01T12:49:14;92866.81;;;12.16;100.00
7918;BME280;4004;42.624;23.386;2023-04-01T12:51:56;92858.88;;;11.95;100.00
7918;BME280;4004;42.624;23.386;2023-04-01T12:54:56;92866.66;;;11.75;100.00
7918;BME280;4004;42.624;23.386;2023-04-01T12:57:56;92866.34;;;11.58;100.00
7918;BME280;4004;42.624;23.386;2023-04-01T13:00:34;92845.66;;;11.41;100.00
7918;BME280;4004;42.624;23.386;2023-04-01T13:03:27;92836.88;;;11.30;100.00
7918;BME280;4004;42.624;23.386;2023-04-01T13:06:31;92844.94;;;11.30;100.00
7918;BME280;4004;42.624;23.386;2023-04-01T13:09:08;92839.88;;;11.43;100.00
7918;BME280;4004;42.624;23.386;2023-04-01T13:11:54;92847.53;;;11.51;100.00
7918;BME280;4004;42.624;23.386;2023-04-01T13:14:36;92846.34;;;11.59;100.00
7918;BME280;4004;42.624;23.386;2023-04-01T13:17:11;92823.66;;;11.60;100.00
7918;BME280;4004;42.624;23.386;2023-04-01T13:19:47;92789.13;;;11.48;100.00
7918;BME280;4004;42.624;23.386;2023-04-01T13:22:23;92769.84;;;11.60;100.00
7918;BME280;4004;42.624;23.386;2023-04-01T13:24:58;92744.38;;;11.69;100.00
7918;BME280;4004;42.624;23.386;2023-04-01T13:27:30;92754.75;;;11.70;100.00
7918;BME280;4004;42.624;23.386;2023-04-01T13:30:07;92751.47;;;12.04;100.00
7918;BME280;4004;42.624;23.386;2023-04-01T13:32:47;92748.16;;;12.27;100.00
7918;BME280;4004;42.624;23.386;2023-04-01T13:35:25;92754.13;;;12.49;100.00
7918;BME280;4004;42.624;23.386;2023-04-01T13:38:04;92742.56;;;12.86;98.13
7918;BME280;4004;42.624;23.386;2023-04-01T13:40:45;92743.56;;;13.00;83.89
7918;BME280;4004;42.624;23.386;2023-04-01T13:43:17;92733.75;;;13.17;89.21
7918;BME280;4004;42.624;23.386;2023-04-01T13:46:06;92746.97;;;13.38;88.75
7918;BME280;4004;42.624;23.386;2023-04-01T13:49:02;92730.81;;;13.65;91.00
7918;BME280;4004;42.624;23.386;2023-04-01T13:51:59;92730.78;;;13.93;88.83
7918;BME280;4004;42.624;23.386;2023-04-01T13:54:52;92744.41;;;14.09;85.06
7918;BME280;4004;42.624;23.386;2023-04-01T13:57:33;92728.91;;;14.37;85.27
7918;BME280;4004;42.624;23.386;2023-04-01T14:00:11;92746.56;;;14.65;83.78
7918;BME280;4004;42.624;23.386;2023-04-01T14:02:51;92728.91;;;14.80;84.82
7918;BME280;4004;42.624;23.386;2023-04-01T14:05:35;92726.91;;;14.84;78.41
7918;BME280;4004;42.624;23.386;2023-04-01T14:08:20;92705.34;;;13.90;96.08
7918;BME280;4004;42.624;23.386;2023-04-01T14:10:59;92714.50;;;13.45;100.00
7918;BME280;4004;42.624;23.386;2023-04-01T14:13:39;92718.91;;;13.01;100.00
7918;BME280;4004;42.624;23.386;2023-04-01T14:19:16;92711.31;;;12.58;100.00
7918;BME280;4004;42.624;23.386;2023-04-01T14:21:55;92698.25;;;12.53;100.00
7918;BME280;4004;42.624;23.386;2023-04-01T14:24:50;92707.25;;;12.39;100.00
7918;BME280;4004;42.624;23.386;2023-04-01T14:27:44;92684.97;;;12.35;100.00
7918;BME280;4004;42.624;23.386;2023-04-01T14:30:36;92683.75;;;12.43;100.00
7918;BME280;4004;42.624;23.386;2023-04-01T14:33:13;92694.72;;;12.22;100.00
7918;BME280;4004;42.624;23.386;2023-04-01T14:35:50;92692.56;;;12.10;100.00
7918;BME280;4004;42.624;23.386;2023-04-01T14:38:27;92688.31;;;12.09;100.00
7918;BME280;4004;42.624;23.386;2023-04-01T14:40:56;92693.75;;;12.05;100.00
7918;BME280;4004;42.624;23.386;2023-04-01T14:44:00;92689.13;;;12.06;100.00
7918;BME280;4004;42.624;23.386;2023-04-01T14:47:03;92683.00;;;11.98;100.00
7918;BME280;4004;42.624;23.386;2023-04-01T14:49:34;92685.25;;;12.07;100.00
7918;BME280;4004;42.624;23.386;2023-04-01T14:52:10;92668.78;;;11.97;100.00
7918;BME280;4004;42.624;23.386;2023-04-01T14:54:41;92686.50;;;11.98;100.00
7918;BME280;4004;42.624;23.386;2023-04-01T14:57:11;92687.19;;;12.06;100.00
7918;BME280;4004;42.624;23.386;2023-04-01T14:59:41;92684.09;;;12.08;100.00